Weather at Mendig Airfield

Public forecast

Using degrees Celsius for public forecast. Weather courtesy of forecast.io.

Closest aviation weather report (METAR) to Mendig Airfield

Closest report is Büchel Air Base, 15.1 nm (27.9 km) SW.

2024/05/25 16:20 (retrieved 57 minutes ago)

ETSB 251620Z AUTO VRB02KT //// // ////// 17/09 Q1017 ///

Closest aviation forecast (TAF) to Mendig Airfield

Closest forecast is Frankfurt-Hahn Airport, 25.1 nm (46.5 km) S.

2024/05/25 12:27 (retrieved 5 hours ago)

TAF EDFH 251100Z 2512/2612 24006KT 9999 SCT030 TEMPO 2512/2518 SHRA BKN025CB PROB30 TEMPO 2512/2516 4500 TSRA BECMG 2518/2521 15007KT